sensor_id;sensor_type;location;lat;lon;timestamp;pressure;altitude;pressure_sealevel;temperature;humidity
53932;BME280;39844;52.496;13.482;2023-11-21T00:00:33;100621.25;;;8.37;100.00
53932;BME280;39844;52.496;13.482;2023-11-21T00:02:58;100628.19;;;8.29;100.00
53932;BME280;39844;52.496;13.482;2023-11-21T00:05:24;100630.78;;;8.23;100.00
53932;BME280;39844;52.496;13.482;2023-11-21T00:07:49;100632.50;;;8.19;100.00
53932;BME280;39844;52.496;13.482;2023-11-21T00:10:14;100633.34;;;8.11;100.00
53932;BME280;39844;52.496;13.482;2023-11-21T00:12:40;100635.94;;;8.05;100.00
53932;BME280;39844;52.496;13.482;2023-11-21T00:15:05;100645.47;;;8.01;100.00
53932;BME280;39844;52.496;13.482;2023-11-21T00:17:31;100647.19;;;7.96;100.00
53932;BME280;39844;52.496;13.482;2023-11-21T00:19:56;100648.06;;;7.94;100.00
53932;BME280;39844;52.496;13.482;2023-11-21T00:22:21;100646.34;;;7.93;100.00
53932;BME280;39844;52.496;13.482;2023-11-21T00:24:47;100655.88;;;7.88;100.00
53932;BME280;39844;52.496;13.482;2023-11-21T00:27:12;100657.59;;;7.83;100.00
53932;BME280;39844;52.496;13.482;2023-11-21T00:29:37;100660.16;;;7.75;100.00
53932;BME280;39844;52.496;13.482;2023-11-21T00:32:03;100659.22;;;7.69;100.00
53932;BME280;39844;52.496;13.482;2023-11-21T00:34:28;100664.44;;;7.65;100.00
53932;BME280;39844;52.496;13.482;2023-11-21T00:36:54;100665.28;;;7.63;100.00
53932;BME280;39844;52.496;13.482;2023-11-21T00:39:19;100668.75;;;7.59;100.00
53932;BME280;39844;52.496;13.482;2023-11-21T00:41:44;100669.59;;;7.56;100.00
53932;BME280;39844;52.496;13.482;2023-11-21T00:44:10;100683.50;;;7.52;100.00
53932;BME280;39844;52.496;13.482;2023-11-21T00:46:35;100686.94;;;7.48;100.00
53932;BME280;39844;52.496;13.482;2023-11-21T00:49:00;100684.31;;;7.45;100.00
53932;BME280;39844;52.496;13.482;2023-11-21T00:51:26;100682.50;;;7.40;100.00
53932;BME280;39844;52.496;13.482;2023-11-21T00:53:51;100685.13;;;7.37;100.00
53932;BME280;39844;52.496;13.482;2023-11-21T00:56:16;100684.25;;;7.36;100.00
53932;BME280;39844;52.496;13.482;2023-11-21T00:58:41;100692.91;;;7.31;100.00
53932;BME280;39844;52.496;13.482;2023-11-21T01:01:07;100688.53;;;7.28;100.00
53932;BME280;39844;52.496;13.482;2023-11-21T01:03:32;100697.19;;;7.24;100.00
53932;BME280;39844;52.496;13.482;2023-11-21T01:05:57;100701.50;;;7.21;100.00
53932;BME280;39844;52.496;13.482;2023-11-21T01:08:23;100701.47;;;7.16;100.00
53932;BME280;39844;52.496;13.482;2023-11-21T01:10:48;100704.88;;;7.12;100.00
53932;BME280;39844;52.496;13.482;2023-11-21T01:13:14;100704.84;;;7.08;100.00
53932;BME280;39844;52.496;13.482;2023-11-21T01:15:39;100707.44;;;7.03;100.00
53932;BME280;39844;52.496;13.482;2023-11-21T01:18:04;100712.59;;;7.00;100.00
53932;BME280;39844;52.496;13.482;2023-11-21T01:20:29;100726.50;;;6.96;100.00
53932;BME280;39844;52.496;13.482;2023-11-21T01:22:55;100729.06;;;6.91;100.00
53932;BME280;39844;52.496;13.482;2023-11-21T01:25:20;100733.34;;;6.88;100.00
53932;BME280;39844;52.496;13.482;2023-11-21T01:27:45;100736.81;;;6.87;100.00
53932;BME280;39844;52.496;13.482;2023-11-21T01:30:11;100738.53;;;6.83;100.00
53932;BME280;39844;52.496;13.482;2023-11-21T01:32:36;100731.56;;;6.81;100.00
53932;BME280;39844;52.496;13.482;2023-11-21T01:35:02;100744.59;;;6.81;100.00
53932;BME280;39844;52.496;13.482;2023-11-21T01:37:28;100745.44;;;6.80;100.00
53932;BME280;39844;52.496;13.482;2023-11-21T01:39:54;100736.69;;;6.75;100.00
53932;BME280;39844;52.496;13.482;2023-11-21T01:42:19;100740.97;;;6.71;100.00
53932;BME280;39844;52.496;13.482;2023-11-21T01:44:44;100742.69;;;6.69;100.00
53932;BME280;39844;52.496;13.482;2023-11-21T01:47:10;100741.81;;;6.69;100.00
53932;BME280;39844;52.496;13.482;2023-11-21T01:49:36;100753.19;;;6.74;100.00
53932;BME280;39844;52.496;13.482;2023-11-21T01:52:01;100744.47;;;6.72;100.00
53932;BME280;39844;52.496;13.482;2023-11-21T01:54:27;100756.66;;;6.73;100.00
53932;BME280;39844;52.496;13.482;2023-11-21T01:56:53;100749.69;;;6.72;100.00
53932;BME280;39844;52.496;13.482;2023-11-21T01:59:20;100748.00;;;6.75;100.00
53932;BME280;39844;52.496;13.482;2023-11-21T02:01:46;100760.16;;;6.75;100.00
53932;BME280;39844;52.496;13.482;2023-11-21T02:04:11;100760.16;;;6.76;100.00
53932;BME280;39844;52.496;13.482;2023-11-21T02:06:37;100768.81;;;6.72;100.00
53932;BME280;39844;52.496;13.482;2023-11-21T02:09:02;100767.09;;;6.74;100.00
53932;BME280;39844;52.496;13.482;2023-11-21T02:11:27;100762.72;;;6.70;100.00
53932;BME280;39844;52.496;13.482;2023-11-21T02:13:53;100769.63;;;6.67;100.00
53932;BME280;39844;52.496;13.482;2023-11-21T02:16:18;100767.88;;;6.66;100.00
53932;BME280;39844;52.496;13.482;2023-11-21T02:18:43;100781.78;;;6.65;100.00
53932;BME280;39844;52.496;13.482;2023-11-21T02:21:09;100775.63;;;6.58;100.00
53932;BME280;39844;52.496;13.482;2023-11-21T02:23:34;100775.56;;;6.57;100.00
53932;BME280;39844;52.496;13.482;2023-11-21T02:25:59;100773.84;;;6.56;100.00
53932;BME280;39844;52.496;13.482;2023-11-21T02:28:25;100782.47;;;6.52;100.00
53932;BME280;39844;52.496;13.482;2023-11-21T02:30:50;100776.38;;;6.51;100.00
53932;BME280;39844;52.496;13.482;2023-11-21T02:33:15;100774.59;;;6.49;100.00
53932;BME280;39844;52.496;13.482;2023-11-21T02:35:40;100784.13;;;6.47;100.00
53932;BME280;39844;52.496;13.482;2023-11-21T02:38:06;100789.31;;;6.44;100.00
53932;BME280;39844;52.496;13.482;2023-11-21T02:40:31;100797.13;;;6.42;100.00
53932;BME280;39844;52.496;13.482;2023-11-21T02:42:56;100788.41;;;6.40;100.00
53932;BME280;39844;52.496;13.482;2023-11-21T02:45:22;100796.22;;;6.40;100.00
53932;BME280;39844;52.496;13.482;2023-11-21T02:47:47;100798.84;;;6.42;100.00
53932;BME280;39844;52.496;13.482;2023-11-21T02:50:13;100798.84;;;6.40;100.00
53932;BME280;39844;52.496;13.482;2023-11-21T02:52:38;100797.94;;;6.38;100.00
53932;BME280;39844;52.496;13.482;2023-11-21T02:55:04;100802.22;;;6.34;100.00
53932;BME280;39844;52.496;13.482;2023-11-21T02:57:30;100802.16;;;6.31;100.00
53932;BME280;39844;52.496;13.482;2023-11-21T02:59:55;100795.19;;;6.30;100.00
53932;BME280;39844;52.496;13.482;2023-11-21T03:02:21;100798.66;;;6.29;100.00
53932;BME280;39844;52.496;13.482;2023-11-21T03:04:46;100797.81;;;6.30;100.00
53932;BME280;39844;52.496;13.482;2023-11-21T03:07:11;100796.06;;;6.31;100.00
53932;BME280;39844;52.496;13.482;2023-11-21T03:09:37;100806.44;;;6.26;100.00
53932;BME280;39844;52.496;13.482;2023-11-21T03:12:02;100812.47;;;6.22;100.00
53932;BME280;39844;52.496;13.482;2023-11-21T03:14:27;100808.94;;;6.19;100.00
53932;BME280;39844;52.496;13.482;2023-11-21T03:16:53;100808.03;;;6.17;100.00
53932;BME280;39844;52.496;13.482;2023-11-21T03:19:18;100815.03;;;6.19;100.00
53932;BME280;39844;52.496;13.482;2023-11-21T03:21:43;100821.97;;;6.17;100.00
53932;BME280;39844;52.496;13.482;2023-11-21T03:24:09;100817.53;;;6.13;100.00
53932;BME280;39844;52.496;13.482;2023-11-21T03:26:34;100821.03;;;6.15;100.00
53932;BME280;39844;52.496;13.482;2023-11-21T03:28:59;100824.56;;;6.17;100.00
53932;BME280;39844;52.496;13.482;2023-11-21T03:31:25;100834.16;;;6.20;100.00
53932;BME280;39844;52.496;13.482;2023-11-21T03:33:50;100830.66;;;6.19;100.00
53932;BME280;39844;52.496;13.482;2023-11-21T03:36:15;100838.47;;;6.19;100.00
53932;BME280;39844;52.496;13.482;2023-11-21T03:38:41;100838.44;;;6.16;100.00
53932;BME280;39844;52.496;13.482;2023-11-21T03:41:07;100832.31;;;6.14;100.00
53932;BME280;39844;52.496;13.482;2023-11-21T03:43:32;100837.50;;;6.13;100.00
53932;BME280;39844;52.496;13.482;2023-11-21T03:45:57;100846.19;;;6.13;100.00
53932;BME280;39844;52.496;13.482;2023-11-21T03:48:23;100848.72;;;6.07;100.00
53932;BME280;39844;52.496;13.482;2023-11-21T03:50:48;100848.66;;;6.04;100.00
53932;BME280;39844;52.496;13.482;2023-11-21T03:53:13;100850.38;;;6.04;100.00
53932;BME280;39844;52.496;13.482;2023-11-21T03:55:38;100857.25;;;6.00;100.00
53932;BME280;39844;52.496;13.482;2023-11-21T03:58:04;100860.69;;;5.98;100.00
53932;BME280;39844;52.496;13.482;2023-11-21T04:00:29;100864.19;;;5.97;100.00
53932;BME280;39844;52.496;13.482;2023-11-21T04:02:54;100865.06;;;5.97;100.00
53932;BME280;39844;52.496;13.482;2023-11-21T04:05:20;100864.19;;;5.98;100.00
53932;BME280;39844;52.496;13.482;2023-11-21T04:07:46;100870.28;;;6.00;100.00
53932;BME280;39844;52.496;13.482;2023-11-21T04:10:11;100867.69;;;6.00;100.00
53932;BME280;39844;52.496;13.482;2023-11-21T04:12:36;100875.56;;;6.02;100.00
53932;BME280;39844;52.496;13.482;2023-11-21T04:15:03;100878.94;;;5.98;100.00
53932;BME280;39844;52.496;13.482;2023-11-21T04:17:28;100873.69;;;5.95;100.00
53932;BME280;39844;52.496;13.482;2023-11-21T04:19:53;100884.94;;;5.92;100.00
53932;BME280;39844;52.496;13.482;2023-11-21T04:22:19;100889.28;;;5.92;100.00
53932;BME280;39844;52.496;13.482;2023-11-21T04:24:44;100881.38;;;5.87;100.00
53932;BME280;39844;52.496;13.482;2023-11-21T04:27:09;100897.00;;;5.87;100.00
53932;BME280;39844;52.496;13.482;2023-11-21T04:29:34;100895.31;;;5.89;100.00
53932;BME280;39844;52.496;13.482;2023-11-21T04:32:01;100900.53;;;5.91;100.00
53932;BME280;39844;52.496;13.482;2023-11-21T04:34:26;100892.72;;;5.91;100.00
53932;BME280;39844;52.496;13.482;2023-11-21T04:36:51;100903.13;;;5.89;100.00
53932;BME280;39844;52.496;13.482;2023-11-21T04:39:17;100907.44;;;5.87;100.00
53932;BME280;39844;52.496;13.482;2023-11-21T04:41:42;100915.19;;;5.86;100.00
53932;BME280;39844;52.496;13.482;2023-11-21T04:44:07;100909.94;;;5.84;100.00
53932;BME280;39844;52.496;13.482;2023-11-21T04:46:32;100909.09;;;5.85;100.00
53932;BME280;39844;52.496;13.482;2023-11-21T04:48:58;100903.84;;;5.82;100.00
53932;BME280;39844;52.496;13.482;2023-11-21T04:51:24;100906.38;;;5.81;100.00
53932;BME280;39844;52.496;13.482;2023-11-21T04:53:49;100914.19;;;5.79;100.00
53932;BME280;39844;52.496;13.482;2023-11-21T04:56:14;100911.50;;;5.74;100.00
53932;BME280;39844;52.496;13.482;2023-11-21T04:58:39;100918.38;;;5.71;100.00
53932;BME280;39844;52.496;13.482;2023-11-21T05:01:07;100919.19;;;5.68;100.00
53932;BME280;39844;52.496;13.482;2023-11-21T05:03:32;100917.47;;;5.69;100.00
53932;BME280;39844;52.496;13.482;2023-11-21T05:05:57;100938.25;;;5.67;100.00
53932;BME280;39844;52.496;13.482;2023-11-21T05:08:24;100942.59;;;5.67;100.00
53932;BME280;39844;52.496;13.482;2023-11-21T05:10:49;100934.78;;;5.67;100.00
53932;BME280;39844;52.496;13.482;2023-11-21T05:13:14;100946.94;;;5.68;100.00
53932;BME280;39844;52.496;13.482;2023-11-21T05:15:40;100942.59;;;5.67;100.00
53932;BME280;39844;52.496;13.482;2023-11-21T05:18:05;100948.72;;;5.69;100.00
53932;BME280;39844;52.496;13.482;2023-11-21T05:20:30;100956.53;;;5.69;100.00
53932;BME280;39844;52.496;13.482;2023-11-21T05:22:56;100960.88;;;5.70;100.00
53932;BME280;39844;52.496;13.482;2023-11-21T05:25:21;100959.97;;;5.68;100.00
53932;BME280;39844;52.496;13.482;2023-11-21T05:27:47;100958.25;;;5.68;100.00
53932;BME280;39844;52.496;13.482;2023-11-21T05:30:15;100963.41;;;5.67;100.00
53932;BME280;39844;52.496;13.482;2023-11-21T05:32:41;100956.53;;;5.69;100.00
53932;BME280;39844;52.496;13.482;2023-11-21T05:35:06;100961.75;;;5.70;100.00
53932;BME280;39844;52.496;13.482;2023-11-21T05:37:32;100966.09;;;5.70;100.00
53932;BME280;39844;52.496;13.482;2023-11-21T05:39:57;100971.22;;;5.67;100.00
53932;BME280;39844;52.496;13.482;2023-11-21T05:42:23;100972.03;;;5.64;99.66
53932;BME280;39844;52.496;13.482;2023-11-21T05:44:48;100971.13;;;5.62;99.17
53932;BME280;39844;52.496;13.482;2023-11-21T05:47:14;100983.28;;;5.62;99.71
53932;BME280;39844;52.496;13.482;2023-11-21T05:49:39;100980.66;;;5.62;99.52
53932;BME280;39844;52.496;13.482;2023-11-21T05:52:04;100991.97;;;5.61;99.48
53932;BME280;39844;52.496;13.482;2023-11-21T05:54:30;100988.47;;;5.62;99.58
53932;BME280;39844;52.496;13.482;2023-11-21T05:56:55;100994.56;;;5.62;99.81
53932;BME280;39844;52.496;13.482;2023-11-21T05:59:20;100989.38;;;5.62;99.42
53932;BME280;39844;52.496;13.482;2023-11-21T06:01:45;100998.91;;;5.62;99.14
53932;BME280;39844;52.496;13.482;2023-11-21T06:04:11;100997.94;;;5.57;98.24
53932;BME280;39844;52.496;13.482;2023-11-21T06:06:36;100999.56;;;5.52;97.42
53932;BME280;39844;52.496;13.482;2023-11-21T06:09:02;101007.34;;;5.50;97.86
53932;BME280;39844;52.496;13.482;2023-11-21T06:11:27;101007.34;;;5.49;97.69
53932;BME280;39844;52.496;13.482;2023-11-21T06:13:53;101015.13;;;5.49;97.63
53932;BME280;39844;52.496;13.482;2023-11-21T06:16:18;101021.19;;;5.48;97.73
53932;BME280;39844;52.496;13.482;2023-11-21T06:18:43;101029.81;;;5.47;98.30
53932;BME280;39844;52.496;13.482;2023-11-21T06:21:12;101031.59;;;5.48;97.77
53932;BME280;39844;52.496;13.482;2023-11-21T06:23:37;101032.47;;;5.48;97.92
53932;BME280;39844;52.496;13.482;2023-11-21T06:26:03;101029.81;;;5.47;97.91
53932;BME280;39844;52.496;13.482;2023-11-21T06:28:28;101036.81;;;5.48;98.25
53932;BME280;39844;52.496;13.482;2023-11-21T06:30:54;101044.59;;;5.48;98.09
53932;BME280;39844;52.496;13.482;2023-11-21T06:33:19;101050.72;;;5.50;98.83
53932;BME280;39844;52.496;13.482;2023-11-21T06:35:44;101052.41;;;5.48;98.63
53932;BME280;39844;52.496;13.482;2023-11-21T06:38:10;101055.91;;;5.48;98.86
53932;BME280;39844;52.496;13.482;2023-11-21T06:40:35;101062.03;;;5.50;99.12
53932;BME280;39844;52.496;13.482;2023-11-21T06:43:01;101069.84;;;5.52;99.42
53932;BME280;39844;52.496;13.482;2023-11-21T06:45:26;101069.09;;;5.56;100.00
53932;BME280;39844;52.496;13.482;2023-11-21T06:47:51;101073.47;;;5.58;100.00
53932;BME280;39844;52.496;13.482;2023-11-21T06:50:17;101076.97;;;5.59;100.00
53932;BME280;39844;52.496;13.482;2023-11-21T06:52:42;101070.88;;;5.58;100.00
53932;BME280;39844;52.496;13.482;2023-11-21T06:55:08;101076.91;;;5.56;99.89
53932;BME280;39844;52.496;13.482;2023-11-21T06:57:33;101079.41;;;5.51;99.20
53932;BME280;39844;52.496;13.482;2023-11-21T06:59:59;101082.84;;;5.50;99.28
53932;BME280;39844;52.496;13.482;2023-11-21T07:02:24;101088.88;;;5.48;98.38
53932;BME280;39844;52.496;13.482;2023-11-21T07:04:49;101075.78;;;5.45;98.55
53932;BME280;39844;52.496;13.482;2023-11-21T07:07:15;101081.88;;;5.47;99.44
53932;BME280;39844;52.496;13.482;2023-11-21T07:09:40;101087.16;;;5.50;99.96
53932;BME280;39844;52.496;13.482;2023-11-21T07:12:06;101089.66;;;5.45;98.38
53932;BME280;39844;52.496;13.482;2023-11-21T07:14:31;101091.28;;;5.40;97.48
53932;BME280;39844;52.496;13.482;2023-11-21T07:16:56;101096.53;;;5.42;98.55
53932;BME280;39844;52.496;13.482;2023-11-21T07:19:22;101094.88;;;5.44;99.15
53932;BME280;39844;52.496;13.482;2023-11-21T07:21:47;101093.09;;;5.44;98.72
53932;BME280;39844;52.496;13.482;2023-11-21T07:24:12;101097.47;;;5.45;98.39
53932;BME280;39844;52.496;13.482;2023-11-21T07:26:37;101105.28;;;5.44;98.03
53932;BME280;39844;52.496;13.482;2023-11-21T07:29:04;101112.22;;;5.45;98.77
53932;BME280;39844;52.496;13.482;2023-11-21T07:31:29;101112.13;;;5.40;97.69
53932;BME280;39844;52.496;13.482;2023-11-21T07:33:55;101111.22;;;5.38;97.64
53932;BME280;39844;52.496;13.482;2023-11-21T07:36:20;101113.84;;;5.40;99.05
53932;BME280;39844;52.496;13.482;2023-11-21T07:38:46;101112.13;;;5.40;98.51
53932;BME280;39844;52.496;13.482;2023-11-21T07:41:12;101115.56;;;5.39;98.47
53932;BME280;39844;52.496;13.482;2023-11-21T07:43:37;101118.13;;;5.38;98.16
53932;BME280;39844;52.496;13.482;2023-11-21T07:46:03;101120.72;;;5.36;97.98
53932;BME280;39844;52.496;13.482;2023-11-21T07:48:32;101130.25;;;5.36;97.49
53932;BME280;39844;52.496;13.482;2023-11-21T07:50:58;101128.53;;;5.36;97.60
53932;BME280;39844;52.496;13.482;2023-11-21T07:53:24;101127.59;;;5.34;96.76
53932;BME280;39844;52.496;13.482;2023-11-21T07:55:49;101131.94;;;5.34;96.44
53932;BME280;39844;52.496;13.482;2023-11-21T07:58:15;101132.78;;;5.34;96.33
53932;BME280;39844;52.496;13.482;2023-11-21T08:00:40;101136.34;;;5.36;96.64
53932;BME280;39844;52.496;13.482;2023-11-21T08:03:05;101135.44;;;5.36;96.16
53932;BME280;39844;52.496;13.482;2023-11-21T08:05:31;101144.97;;;5.35;95.57
53932;BME280;39844;52.496;13.482;2023-11-21T08:07:56;101147.53;;;5.34;95.13
53932;BME280;39844;52.496;13.482;2023-11-21T08:10:22;101159.69;;;5.33;94.87
53932;BME280;39844;52.496;13.482;2023-11-21T08:12:47;101170.03;;;5.32;94.74
53932;BME280;39844;52.496;13.482;2023-11-21T08:15:12;101166.56;;;5.31;94.97
53932;BME280;39844;52.496;13.482;2023-11-21T08:17:38;101172.59;;;5.30;93.93
53932;BME280;39844;52.496;13.482;2023-11-21T08:20:03;101168.22;;;5.29;93.80
53932;BME280;39844;52.496;13.482;2023-11-21T08:22:29;101164.72;;;5.27;93.33
53932;BME280;39844;52.496;13.482;2023-11-21T08:24:54;101181.19;;;5.26;93.21
53932;BME280;39844;52.496;13.482;2023-11-21T08:27:19;101171.72;;;5.30;94.60
53932;BME280;39844;52.496;13.482;2023-11-21T08:29:44;101164.91;;;5.35;96.04
53932;BME280;39844;52.496;13.482;2023-11-21T08:32:10;101168.31;;;5.32;93.71
53932;BME280;39844;52.496;13.482;2023-11-21T08:34:35;101175.19;;;5.29;93.24
53932;BME280;39844;52.496;13.482;2023-11-21T08:37:00;101168.22;;;5.28;93.19
53932;BME280;39844;52.496;13.482;2023-11-21T08:39:26;101173.41;;;5.28;93.47
53932;BME280;39844;52.496;13.482;2023-11-21T08:41:51;101180.38;;;5.29;93.82
53932;BME280;39844;52.496;13.482;2023-11-21T08:44:17;101183.91;;;5.31;94.31
53932;BME280;39844;52.496;13.482;2023-11-21T08:46:42;101183.09;;;5.33;94.29
53932;BME280;39844;52.496;13.482;2023-11-21T08:49:07;101192.78;;;5.39;95.00
53932;BME280;39844;52.496;13.482;2023-11-21T08:51:32;101191.91;;;5.40;94.57
53932;BME280;39844;52.496;13.482;2023-11-21T08:53:58;101192.78;;;5.39;93.79
53932;BME280;39844;52.496;13.482;2023-11-21T08:56:23;101198.03;;;5.40;94.21
53932;BME280;39844;52.496;13.482;2023-11-21T08:58:48;101207.63;;;5.43;93.94
53932;BME280;39844;52.496;13.482;2023-11-21T09:01:14;101204.94;;;5.40;92.80
53932;BME280;39844;52.496;13.482;2023-11-21T09:03:39;101210.00;;;5.34;92.35
53932;BME280;39844;52.496;13.482;2023-11-21T09:06:05;101209.13;;;5.33;92.01
53932;BME280;39844;52.496;13.482;2023-11-21T09:08:30;101218.66;;;5.33;92.16
53932;BME280;39844;52.496;13.482;2023-11-21T09:10:55;101223.06;;;5.35;93.46
53932;BME280;39844;52.496;13.482;2023-11-21T09:13:21;101231.69;;;5.34;92.66
53932;BME280;39844;52.496;13.482;2023-11-21T09:15:46;101230.84;;;5.34;93.24
53932;BME280;39844;52.496;13.482;2023-11-21T09:18:14;101246.38;;;5.31;92.88
53932;BME280;39844;52.496;13.482;2023-11-21T09:20:40;101240.31;;;5.32;94.32
53932;BME280;39844;52.496;13.482;2023-11-21T09:23:05;101246.38;;;5.31;93.33
53932;BME280;39844;52.496;13.482;2023-11-21T09:25:30;101250.66;;;5.29;93.72
53932;BME280;39844;52.496;13.482;2023-11-21T09:27:56;101250.59;;;5.27;94.20
53932;BME280;39844;52.496;13.482;2023-11-21T09:30:21;101252.28;;;5.25;94.50
53932;BME280;39844;52.496;13.482;2023-11-21T09:32:46;101254.78;;;5.21;93.71
53932;BME280;39844;52.496;13.482;2023-11-21T09:35:12;101254.78;;;5.21;93.85
53932;BME280;39844;52.496;13.482;2023-11-21T09:37:37;101249.56;;;5.21;94.11
53932;BME280;39844;52.496;13.482;2023-11-21T09:40:02;101274.00;;;5.26;94.18
53932;BME280;39844;52.496;13.482;2023-11-21T09:42:39;101268.72;;;5.23;93.36
53932;BME280;39844;52.496;13.482;2023-11-21T09:47:38;101271.41;;;5.27;92.28
53932;BME280;39844;52.496;13.482;2023-11-21T09:50:06;101277.50;;;5.28;91.52
53932;BME280;39844;52.496;13.482;2023-11-21T09:52:31;101269.81;;;5.32;92.06
53932;BME280;39844;52.496;13.482;2023-11-21T09:54:57;101272.41;;;5.31;91.16
53932;BME280;39844;52.496;13.482;2023-11-21T09:57:23;101276.75;;;5.32;92.07
53932;BME280;39844;52.496;13.482;2023-11-21T09:59:51;101283.69;;;5.31;91.57
53932;BME280;39844;52.496;13.482;2023-11-21T10:02:17;101289.75;;;5.32;91.46
53932;BME280;39844;52.496;13.482;2023-11-21T10:04:42;101288.91;;;5.31;90.81
53932;BME280;39844;52.496;13.482;2023-11-21T10:07:08;101294.03;;;5.28;91.06
53932;BME280;39844;52.496;13.482;2023-11-21T10:09:33;101294.81;;;5.26;91.67
53932;BME280;39844;52.496;13.482;2023-11-21T10:11:59;101290.50;;;5.26;92.19
53932;BME280;39844;52.496;13.482;2023-11-21T10:14:25;101286.16;;;5.27;91.63
53932;BME280;39844;52.496;13.482;2023-11-21T10:16:52;101283.53;;;5.27;91.45
53932;BME280;39844;52.496;13.482;2023-11-21T10:19:18;101290.50;;;5.26;91.57
53932;BME280;39844;52.496;13.482;2023-11-21T10:21:44;101286.22;;;5.28;92.49
53932;BME280;39844;52.496;13.482;2023-11-21T10:24:09;101296.50;;;5.24;90.52
53932;BME280;39844;52.496;13.482;2023-11-21T10:26:35;101291.22;;;5.21;90.93
53932;BME280;39844;52.496;13.482;2023-11-21T10:29:02;101291.41;;;5.28;91.98
53932;BME280;39844;52.496;13.482;2023-11-21T10:31:30;101291.56;;;5.34;91.76
53932;BME280;39844;52.496;13.482;2023-11-21T10:36:38;101294.31;;;5.39;92.57
53932;BME280;39844;52.496;13.482;2023-11-21T10:39:03;101302.94;;;5.38;91.21
53932;BME280;39844;52.496;13.482;2023-11-21T10:41:28;101302.91;;;5.36;91.18
53932;BME280;39844;52.496;13.482;2023-11-21T10:43:55;101311.56;;;5.35;90.73
53932;BME280;39844;52.496;13.482;2023-11-21T10:46:21;101306.16;;;5.29;89.53
53932;BME280;39844;52.496;13.482;2023-11-21T10:48:52;101320.84;;;5.26;90.32
53932;BME280;39844;52.496;13.482;2023-11-21T10:51:17;101319.78;;;5.19;90.20
53932;BME280;39844;52.496;13.482;2023-11-21T10:53:43;101320.56;;;5.17;90.43
53932;BME280;39844;52.496;13.482;2023-11-21T10:56:09;101324.91;;;5.16;90.59
53932;BME280;39844;52.496;13.482;2023-11-21T10:58:39;101322.25;;;5.15;91.62
53932;BME280;39844;52.496;13.482;2023-11-21T11:01:06;101318.75;;;5.13;91.65
53932;BME280;39844;52.496;13.482;2023-11-21T11:03:32;101317.81;;;5.10;91.66
53932;BME280;39844;52.496;13.482;2023-11-21T11:05:57;101330.06;;;5.15;93.31
53932;BME280;39844;52.496;13.482;2023-11-21T11:08:23;101328.38;;;5.17;92.21
53932;BME280;39844;52.496;13.482;2023-11-21T11:10:50;101330.06;;;5.15;91.33
53932;BME280;39844;52.496;13.482;2023-11-21T11:13:16;101325.63;;;5.10;92.19
53932;BME280;39844;52.496;13.482;2023-11-21T11:15:42;101329.97;;;5.11;92.69
53932;BME280;39844;52.496;13.482;2023-11-21T11:18:08;101330.78;;;5.09;92.38
53932;BME280;39844;52.496;13.482;2023-11-21T11:20:36;101328.97;;;5.06;92.98
53932;BME280;39844;52.496;13.482;2023-11-21T11:28:18;101338.94;;;4.91;93.08
53932;BME280;39844;52.496;13.482;2023-11-21T11:31:11;101347.50;;;4.87;93.92
53932;BME280;39844;52.496;13.482;2023-11-21T11:36:25;101361.97;;;4.78;95.47
53932;BME280;39844;52.496;13.482;2023-11-21T11:38:53;101366.28;;;4.77;97.79
53932;BME280;39844;52.496;13.482;2023-11-21T11:41:25;101360.22;;;4.78;98.21
53932;BME280;39844;52.496;13.482;2023-11-21T11:43:51;101380.09;;;4.76;98.79
53932;BME280;39844;52.496;13.482;2023-11-21T11:46:16;101375.69;;;4.74;99.06
53932;BME280;39844;52.496;13.482;2023-11-21T11:48:42;101383.47;;;4.72;99.81
53932;BME280;39844;52.496;13.482;2023-11-21T11:51:15;101386.00;;;4.71;99.49
53932;BME280;39844;52.496;13.482;2023-11-21T11:53:41;101390.38;;;4.72;99.71
53932;BME280;39844;52.496;13.482;2023-11-21T11:56:21;101390.34;;;4.70;98.83
53932;BME280;39844;52.496;13.482;2023-11-21T11:58:54;101394.69;;;4.71;98.40
53932;BME280;39844;52.496;13.482;2023-11-21T12:01:21;101390.41;;;4.73;98.12
53932;BME280;39844;52.496;13.482;2023-11-21T12:06:36;101404.44;;;4.78;97.62
53932;BME280;39844;52.496;13.482;2023-11-21T12:09:02;101413.13;;;4.79;97.22
53932;BME280;39844;52.496;13.482;2023-11-21T12:11:31;101409.50;;;4.74;95.21
53932;BME280;39844;52.496;13.482;2023-11-21T12:13:57;101421.63;;;4.73;95.29
53932;BME280;39844;52.496;13.482;2023-11-21T12:16:23;101418.09;;;4.71;95.31
53932;BME280;39844;52.496;13.482;2023-11-21T12:18:48;101426.00;;;4.74;95.34
53932;BME280;39844;52.496;13.482;2023-11-21T12:21:14;101432.81;;;4.71;95.13
53932;BME280;39844;52.496;13.482;2023-11-21T12:23:39;101429.38;;;4.72;94.37
53932;BME280;39844;52.496;13.482;2023-11-21T12:26:05;101442.34;;;4.70;95.13
53932;BME280;39844;52.496;13.482;2023-11-21T12:28:30;101442.34;;;4.70;95.05
53932;BME280;39844;52.496;13.482;2023-11-21T12:30:56;101446.59;;;4.68;94.89
53932;BME280;39844;52.496;13.482;2023-11-21T12:33:21;101447.44;;;4.67;96.09
53932;BME280;39844;52.496;13.482;2023-11-21T12:35:46;101443.03;;;4.65;96.88
53932;BME280;39844;52.496;13.482;2023-11-21T12:38:11;101450.75;;;4.63;97.80
53932;BME280;39844;52.496;13.482;2023-11-21T12:40:37;101455.13;;;4.63;98.72
53932;BME280;39844;52.496;13.482;2023-11-21T12:43:02;101452.53;;;4.64;100.00
53932;BME280;39844;52.496;13.482;2023-11-21T12:45:28;101459.31;;;4.59;99.09
53932;BME280;39844;52.496;13.482;2023-11-21T12:50:24;101463.06;;;4.67;100.00
53932;BME280;39844;52.496;13.482;2023-11-21T12:52:51;101453.56;;;4.69;100.00
53932;BME280;39844;52.496;13.482;2023-11-21T12:55:21;101455.34;;;4.70;100.00